Time;durP1;ratioP1;P1;durP2;ratioP2;P2;SDS_P1;SDS_P2;PMS_P1;PMS_P2;Temp;Humidity;BMP_temperature;BMP_pressure;BME280_temperature;BME280_humidity;BME280_pressure;Samples;Min_cycle;Max_cycle;Signal;HPM_P1;HPM_P2
2023/06/23 00:01:54;;;;;;;;;;;;;;;27.03;61.79;99436.72;4472119;32;35009;-78
2023/06/23 00:04:24;;;;;;;;;;;;;;;27.17;61.39;99428.41;4462604;32;33809;-80
2023/06/23 00:06:54;;;;;;;;;;;;;;;27.28;61.03;99423.97;4458656;32;33362;-78
2023/06/23 00:09:22;;;;;;;;;;;;;;;26.95;62.42;99425.91;4456178;32;32455;-78
2023/06/23 00:11:51;;;;;;;;;;;;;;;26.95;62.04;99420.59;4475084;32;33825;-79
2023/06/23 00:14:21;;;;;;;;;;;;;;;27.08;61.60;99426.53;4479780;32;34569;-80
2023/06/23 00:16:52;;;;;;;;;;;;;;;27.30;60.71;99422.03;4473420;32;32913;-78
2023/06/23 00:19:20;;;;;;;;;;;;;;;27.06;61.60;99424.97;4472427;32;33954;-79
2023/06/23 00:21:49;;;;;;;;;;;;;;;27.33;60.57;99417.28;4474010;32;35193;-78
2023/06/23 00:24:17;;;;;;;;;;;;;;;27.16;61.10;99409.88;4481477;32;34162;-77
2023/06/23 00:26:47;;;;;;;;;;;;;;;27.05;61.57;99404.66;4468471;32;31619;-78
2023/06/23 00:29:15;;;;;;;;;;;;;;;27.49;59.89;99414.13;4478158;32;33850;-78
2023/06/23 00:31:44;;;;;;;;;;;;;;;27.65;59.31;99419.78;4464506;32;34019;-78
2023/06/23 00:34:14;;;;;;;;;;;;;;;27.69;58.99;99422.16;4481020;32;34520;-79
2023/06/23 00:36:43;;;;;;;;;;;;;;;27.43;59.59;99428.81;4472092;32;33009;-79
2023/06/23 00:39:13;;;;;;;;;;;;;;;27.42;59.58;99427.16;4476139;32;33696;-77
2023/06/23 00:41:42;;;;;;;;;;;;;;;27.22;60.53;99434.19;4476415;32;34560;-78
2023/06/23 00:44:11;;;;;;;;;;;;;;;27.10;61.07;99431.72;4465676;32;35101;-78
2023/06/23 00:46:43;;;;;;;;;;;;;;;26.78;62.35;99436.16;4482267;32;32900;-78
2023/06/23 00:49:15;;;;;;;;;;;;;;;27.22;60.75;99430.69;4473040;32;33261;-78
2023/06/23 00:51:44;;;;;;;;;;;;;;;27.46;59.87;99435.72;4469179;32;34183;-78
2023/06/23 00:54:13;;;;;;;;;;;;;;;27.31;60.28;99429.06;4475713;32;34648;-79
2023/06/23 00:56:43;;;;;;;;;;;;;;;27.51;59.50;99425.47;4480994;32;32745;-80
2023/06/23 00:59:12;;;;;;;;;;;;;;;27.42;59.76;99411.16;4476983;32;33726;-78
2023/06/23 01:01:41;;;;;;;;;;;;;;;27.28;60.16;99416.88;4476053;32;35029;-80
2023/06/23 01:04:11;;;;;;;;;;;;;;;27.44;59.59;99401.19;4463826;32;33536;-78
2023/06/23 01:06:46;;;;;;;;;;;;;;;27.26;60.39;99402.00;4476342;32;33317;-80
2023/06/23 01:09:17;;;;;;;;;;;;;;;26.81;61.73;99395.97;4481413;32;34260;-79
2023/06/23 01:11:50;;;;;;;;;;;;;;;26.81;61.48;99398.63;4476907;32;35150;-80
2023/06/23 01:14:20;;;;;;;;;;;;;;;26.70;61.72;99397.84;4475961;31;33393;-78
2023/06/23 01:16:50;;;;;;;;;;;;;;;26.26;63.41;99389.13;4463761;32;33026;-78
2023/06/23 01:19:22;;;;;;;;;;;;;;;26.40;62.91;99392.31;4451042;32;32097;-78
2023/06/23 01:21:59;;;;;;;;;;;;;;;26.34;63.24;99382.19;4467843;32;35119;-80
2023/06/23 01:24:32;;;;;;;;;;;;;;;26.69;61.91;99383.72;4471047;32;34014;-78
2023/06/23 01:27:06;;;;;;;;;;;;;;;26.48;62.62;99389.03;4463781;32;33486;-78
2023/06/23 01:29:39;;;;;;;;;;;;;;;26.30;63.44;99385.25;4464042;32;34986;-79
2023/06/23 01:32:11;;;;;;;;;;;;;;;26.38;63.12;99382.78;4472716;32;34970;-78
2023/06/23 01:34:41;;;;;;;;;;;;;;;26.30;63.51;99379.91;4470209;32;34341;-80
2023/06/23 01:37:10;;;;;;;;;;;;;;;26.30;63.45;99371.94;4465807;32;32926;-78
2023/06/23 01:39:39;;;;;;;;;;;;;;;26.50;62.70;99372.91;4472399;32;33941;-80
2023/06/23 01:42:09;;;;;;;;;;;;;;;26.26;63.78;99379.31;4476095;32;35690;-79
2023/06/23 01:44:40;;;;;;;;;;;;;;;25.96;64.69;99380.91;4478597;32;34248;-80
2023/06/23 01:47:11;;;;;;;;;;;;;;;26.23;63.63;99384.91;4452985;32;32107;-78
2023/06/23 01:49:41;;;;;;;;;;;;;;;26.08;64.32;99396.81;4464888;32;34159;-79
2023/06/23 01:52:09;;;;;;;;;;;;;;;25.99;64.85;99406.37;4465155;32;34813;-78
2023/06/23 01:54:38;;;;;;;;;;;;;;;26.16;63.87;99415.63;4475299;32;35191;-78
2023/06/23 01:57:10;;;;;;;;;;;;;;;26.00;64.35;99423.16;4477458;32;33474;-79
2023/06/23 01:59:40;;;;;;;;;;;;;;;26.29;63.39;99412.78;4462003;32;34527;-79
2023/06/23 02:02:09;;;;;;;;;;;;;;;26.02;64.54;99410.59;4462270;32;33963;-78
2023/06/23 02:04:39;;;;;;;;;;;;;;;26.09;64.22;99406.47;4465551;32;34379;-78
2023/06/23 02:07:08;;;;;;;;;;;;;;;26.22;63.59;99411.63;4475205;32;32889;-78
2023/06/23 02:09:37;;;;;;;;;;;;;;;26.31;63.08;99419.69;4466359;32;33801;-80
2023/06/23 02:12:07;;;;;;;;;;;;;;;26.01;64.14;99424.88;4461830;32;33845;-78
2023/06/23 02:14:37;;;;;;;;;;;;;;;26.28;63.13;99425.25;4469359;32;35101;-79
2023/06/23 02:17:09;;;;;;;;;;;;;;;25.94;64.45;99419.19;4476624;32;34352;-78
2023/06/23 02:19:39;;;;;;;;;;;;;;;26.33;62.89;99406.25;4464525;32;33551;-79
2023/06/23 02:22:09;;;;;;;;;;;;;;;26.06;64.00;99407.56;4468008;32;34651;-79
2023/06/23 02:24:38;;;;;;;;;;;;;;;26.13;63.84;99410.56;4465802;32;34505;-78
2023/06/23 02:27:07;;;;;;;;;;;;;;;26.09;63.78;99401.97;4470335;31;33743;-78
2023/06/23 02:29:38;;;;;;;;;;;;;;;26.14;63.77;99401.59;4470588;32;34845;-79
2023/06/23 02:32:07;;;;;;;;;;;;;;;26.05;63.87;99405.87;4473725;32;34310;-78
2023/06/23 02:34:40;;;;;;;;;;;;;;;25.58;65.83;99409.69;4456600;32;33654;-78
2023/06/23 02:37:10;;;;;;;;;;;;;;;25.82;64.95;99407.72;4462200;32;33284;-78
2023/06/23 02:39:39;;;;;;;;;;;;;;;25.69;65.54;99409.69;4475949;32;35186;-78
2023/06/23 02:42:10;;;;;;;;;;;;;;;25.77;65.21;99402.78;4467273;32;34844;-80
2023/06/23 02:44:40;;;;;;;;;;;;;;;25.75;65.24;99398.56;4468763;32;34036;-78
2023/06/23 02:47:09;;;;;;;;;;;;;;;25.81;64.85;99398.06;4463481;32;34012;-78
2023/06/23 02:49:40;;;;;;;;;;;;;;;25.69;65.33;99396.41;4460770;32;34950;-80
2023/06/23 02:52:08;;;;;;;;;;;;;;;25.62;65.38;99392.56;4479834;32;34142;-78
2023/06/23 02:54:38;;;;;;;;;;;;;;;25.41;66.17;99393.28;4476645;32;34463;-78
2023/06/23 02:57:08;;;;;;;;;;;;;;;25.63;65.50;99394.22;4470109;32;33418;-80
2023/06/23 02:59:36;;;;;;;;;;;;;;;25.85;64.42;99396.81;4462519;32;33928;-78
2023/06/23 03:02:06;;;;;;;;;;;;;;;25.44;65.91;99393.06;4477708;32;34215;-79
2023/06/23 03:04:38;;;;;;;;;;;;;;;25.74;64.76;99399.53;4469955;32;32599;-78
2023/06/23 03:07:10;;;;;;;;;;;;;;;26.02;63.65;99397.31;4475402;31;33613;-79
2023/06/23 03:09:39;;;;;;;;;;;;;;;26.15;63.01;99400.66;4462553;32;33726;-78
2023/06/23 03:12:08;;;;;;;;;;;;;;;26.30;62.56;99409.19;4469797;32;34261;-78
2023/06/23 03:14:37;;;;;;;;;;;;;;;26.15;63.00;99401.50;4475210;32;34304;-78
2023/06/23 03:17:07;;;;;;;;;;;;;;;26.11;63.18;99402.72;4477835;32;33981;-77
2023/06/23 03:19:37;;;;;;;;;;;;;;;26.00;63.27;99408.09;4469421;32;34493;-79
2023/06/23 03:22:07;;;;;;;;;;;;;;;26.27;62.50;99410.28;4475861;32;34234;-80
2023/06/23 03:24:38;;;;;;;;;;;;;;;26.37;62.11;99416.50;4471392;32;34626;-80
2023/06/23 03:27:11;;;;;;;;;;;;;;;26.32;62.35;99412.56;4463184;32;33245;-78
2023/06/23 03:29:40;;;;;;;;;;;;;;;26.40;61.89;99421.56;4463169;32;35298;-78
2023/06/23 03:32:10;;;;;;;;;;;;;;;26.07;63.13;99427.00;4467176;32;34957;-78
2023/06/23 03:34:41;;;;;;;;;;;;;;;26.01;63.60;99430.19;4468972;32;34407;-78
2023/06/23 03:37:10;;;;;;;;;;;;;;;26.10;63.13;99432.09;4478265;32;32910;-78
2023/06/23 03:39:41;;;;;;;;;;;;;;;26.52;61.57;99433.00;4468624;32;34171;-78
2023/06/23 03:42:10;;;;;;;;;;;;;;;26.53;61.63;99432.06;4464505;32;33308;-80
2023/06/23 03:44:40;;;;;;;;;;;;;;;26.59;61.52;99436.87;4475663;32;34327;-80
2023/06/23 03:47:10;;;;;;;;;;;;;;;26.78;61.05;99425.53;4468246;32;33735;-78
2023/06/23 03:49:41;;;;;;;;;;;;;;;26.86;60.66;99421.37;4475122;32;34032;-79
2023/06/23 03:52:10;;;;;;;;;;;;;;;26.98;60.36;99414.97;4462362;32;35138;-78
2023/06/23 03:54:40;;;;;;;;;;;;;;;26.88;60.80;99422.91;4474687;32;34623;-78
2023/06/23 03:57:10;;;;;;;;;;;;;;;26.66;61.06;99421.25;4463723;32;33133;-79
2023/06/23 03:59:39;;;;;;;;;;;;;;;26.78;60.34;99433.50;4465917;32;34214;-79
2023/06/23 04:02:07;;;;;;;;;;;;;;;26.76;60.48;99448.75;4471699;32;33801;-79
2023/06/23 04:04:36;;;;;;;;;;;;;;;26.70;60.78;99443.97;4470987;32;33563;-79
2023/06/23 04:07:05;;;;;;;;;;;;;;;26.49;61.79;99451.87;4460861;32;33445;-79
2023/06/23 04:09:34;;;;;;;;;;;;;;;27.07;60.08;99446.16;4473051;32;33977;-79
2023/06/23 04:12:05;;;;;;;;;;;;;;;26.70;60.68;99443.09;4460378;32;34877;-80
2023/06/23 04:14:35;;;;;;;;;;;;;;;26.92;60.46;99442.16;4467960;32;34639;-79
2023/06/23 04:17:03;;;;;;;;;;;;;;;26.89;60.34;99442.38;4460286;32;33235;-79
2023/06/23 04:19:33;;;;;;;;;;;;;;;27.04;60.15;99438.44;4461252;32;34954;-79
2023/06/23 04:22:03;;;;;;;;;;;;;;;27.77;58.08;99441.00;4466013;32;34747;-78
2023/06/23 04:24:32;;;;;;;;;;;;;;;27.86;57.50;99448.22;4465331;32;33949;-78
2023/06/23 04:27:00;;;;;;;;;;;;;;;27.69;58.22;99443.50;4470812;32;34261;-80
2023/06/23 04:29:30;;;;;;;;;;;;;;;27.75;58.29;99434.97;4467197;32;35037;-79
2023/06/23 04:31:59;;;;;;;;;;;;;;;28.01;57.35;99438.00;4473406;32;34434;-78
2023/06/23 04:34:28;;;;;;;;;;;;;;;28.29;56.14;99439.00;4465821;32;34404;-79
2023/06/23 04:36:59;;;;;;;;;;;;;;;28.79;54.74;99449.53;4475681;32;33627;-79
2023/06/23 04:39:29;;;;;;;;;;;;;;;29.03;53.60;99438.38;4471747;32;34214;-80
2023/06/23 04:42:00;;;;;;;;;;;;;;;28.82;54.10;99435.06;4473384;32;34320;-80
2023/06/23 04:44:29;;;;;;;;;;;;;;;29.32;52.55;99432.13;4470136;32;34253;-79
2023/06/23 04:47:02;;;;;;;;;;;;;;;29.19;53.13;99437.81;4463768;32;33590;-80
2023/06/23 04:49:30;;;;;;;;;;;;;;;29.47;52.41;99440.50;4463648;32;35948;-79
2023/06/23 04:52:00;;;;;;;;;;;;;;;29.72;51.23;99423.81;4466216;32;33601;-80
2023/06/23 04:54:30;;;;;;;;;;;;;;;30.06;50.70;99428.53;4479531;32;33820;-79
2023/06/23 04:57:01;;;;;;;;;;;;;;;29.64;51.70;99445.06;4476740;32;32553;-79
2023/06/23 04:59:32;;;;;;;;;;;;;;;30.23;49.75;99442.91;4478691;32;33661;-78
2023/06/23 05:02:03;;;;;;;;;;;;;;;30.73;47.83;99434.31;4466123;32;33792;-79
2023/06/23 05:04:31;;;;;;;;;;;;;;;30.19;49.45;99425.47;4475816;32;33438;-79
2023/06/23 05:07:00;;;;;;;;;;;;;;;30.79;47.51;99432.88;4482229;32;33508;-79
2023/06/23 05:09:29;;;;;;;;;;;;;;;31.02;47.69;99438.56;4462529;32;34157;-79
2023/06/23 05:11:58;;;;;;;;;;;;;;;31.33;46.72;99433.53;4476895;32;34903;-79
2023/06/23 05:14:26;;;;;;;;;;;;;;;31.51;46.31;99427.28;4477566;32;34971;-81
2023/06/23 05:16:56;;;;;;;;;;;;;;;31.56;46.20;99424.97;4483270;32;33232;-80
2023/06/23 05:19:26;;;;;;;;;;;;;;;31.51;45.50;99422.78;4474287;32;34546;-80
2023/06/23 05:21:54;;;;;;;;;;;;;;;31.80;45.37;99427.75;4476664;32;33765;-79
2023/06/23 05:24:25;;;;;;;;;;;;;;;30.99;46.54;99434.34;4474891;32;34539;-80
2023/06/23 05:26:54;;;;;;;;;;;;;;;30.89;46.74;99443.50;4476173;32;32592;-79
2023/06/23 05:29:23;;;;;;;;;;;;;;;31.16;46.41;99437.16;4465874;32;34468;-79
2023/06/23 05:31:52;;;;;;;;;;;;;;;31.25;46.15;99437.03;4464785;32;34891;-79
2023/06/23 05:34:20;;;;;;;;;;;;;;;31.21;46.20;99435.66;4461548;32;35618;-79
2023/06/23 05:36:50;;;;;;;;;;;;;;;31.43;46.03;99441.50;4468054;32;34048;-79
2023/06/23 05:39:19;;;;;;;;;;;;;;;31.34;45.66;99445.09;4473637;32;34334;-80
2023/06/23 05:41:49;;;;;;;;;;;;;;;31.04;46.34;99440.06;4469710;32;34306;-78
2023/06/23 05:44:18;;;;;;;;;;;;;;;31.49;46.12;99440.03;4469145;32;35008;-79
2023/06/23 05:46:51;;;;;;;;;;;;;;;31.12;46.29;99439.31;4471216;32;33915;-79
2023/06/23 05:49:21;;;;;;;;;;;;;;;31.23;46.49;99438.19;4472167;32;34979;-78
2023/06/23 05:51:54;;;;;;;;;;;;;;;31.00;46.36;99441.41;4474729;32;32517;-79
2023/06/23 05:54:23;;;;;;;;;;;;;;;31.05;46.60;99438.25;4469450;32;34956;-80
2023/06/23 05:56:53;;;;;;;;;;;;;;;30.92;47.29;99435.16;4461460;32;33452;-79
2023/06/23 05:59:24;;;;;;;;;;;;;;;31.10;46.45;99437.75;4466789;32;33165;-80
2023/06/23 06:01:55;;;;;;;;;;;;;;;30.86;48.25;99436.63;4471499;32;34173;-80
2023/06/23 06:04:25;;;;;;;;;;;;;;;30.86;47.77;99423.25;4461787;32;32505;-80
2023/06/23 06:06:55;;;;;;;;;;;;;;;30.53;49.17;99406.87;4468618;32;34143;-79
2023/06/23 06:09:24;;;;;;;;;;;;;;;31.06;47.90;99420.34;4471656;32;33882;-79
2023/06/23 06:11:53;;;;;;;;;;;;;;;30.74;47.79;99425.28;4479429;32;35153;-79
2023/06/23 06:14:22;;;;;;;;;;;;;;;30.42;49.15;99423.19;4478438;32;34060;-79
2023/06/23 06:16:51;;;;;;;;;;;;;;;30.49;48.55;99410.88;4471679;32;34163;-79
2023/06/23 06:19:21;;;;;;;;;;;;;;;30.86;48.25;99406.31;4475690;32;33811;-79
2023/06/23 06:21:50;;;;;;;;;;;;;;;31.05;47.97;99408.78;4469225;32;34105;-80
2023/06/23 06:24:19;;;;;;;;;;;;;;;30.61;48.95;99398.06;4479802;32;34433;-79
2023/06/23 06:26:49;;;;;;;;;;;;;;;30.92;48.38;99400.34;4471480;32;34130;-80
2023/06/23 06:29:18;;;;;;;;;;;;;;;30.92;48.81;99389.63;4474874;31;34918;-79
2023/06/23 06:31:47;;;;;;;;;;;;;;;30.95;48.49;99387.47;4473597;32;34229;-80
2023/06/23 06:34:17;;;;;;;;;;;;;;;30.78;49.93;99393.66;4477370;32;34317;-78
2023/06/23 06:36:46;;;;;;;;;;;;;;;31.02;48.40;99396.53;4470130;32;33965;-80
2023/06/23 06:39:15;;;;;;;;;;;;;;;30.49;49.28;99388.63;4473013;32;34802;-80
2023/06/23 06:41:46;;;;;;;;;;;;;;;30.51;48.97;99387.47;4475126;32;33217;-79
2023/06/23 06:44:15;;;;;;;;;;;;;;;30.80;49.13;99375.63;4473818;32;34304;-80
2023/06/23 06:46:44;;;;;;;;;;;;;;;30.54;49.27;99379.16;4473006;32;33673;-81
2023/06/23 06:49:13;;;;;;;;;;;;;;;30.44;49.57;99375.69;4471842;32;34125;-79
2023/06/23 06:51:42;;;;;;;;;;;;;;;29.69;52.08;99370.63;4473254;32;35049;-79
2023/06/23 06:54:11;;;;;;;;;;;;;;;30.37;50.40;99374.63;4476352;32;35072;-79
2023/06/23 06:56:41;;;;;;;;;;;;;;;30.71;49.29;99379.22;4479606;32;33353;-81
2023/06/23 06:59:11;;;;;;;;;;;;;;;30.17;50.69;99382.81;4472091;32;33779;-79
2023/06/23 07:01:40;;;;;;;;;;;;;;;30.63;49.79;99388.06;4477097;32;34274;-80
2023/06/23 07:04:09;;;;;;;;;;;;;;;30.96;48.90;99391.00;4477859;32;34440;-78
2023/06/23 07:06:40;;;;;;;;;;;;;;;31.09;48.97;99395.91;4478461;32;34187;-80
2023/06/23 07:09:09;;;;;;;;;;;;;;;30.90;48.80;99391.59;4469138;32;34139;-79
2023/06/23 07:11:38;;;;;;;;;;;;;;;31.17;47.95;99391.44;4476534;32;33971;-80
2023/06/23 07:14:06;;;;;;;;;;;;;;;31.25;48.88;99386.09;4475939;32;35096;-80
2023/06/23 07:16:37;;;;;;;;;;;;;;;31.31;48.30;99389.97;4476385;32;34335;-80
2023/06/23 07:19:05;;;;;;;;;;;;;;;31.40;47.84;99388.22;4477499;32;33810;-79
2023/06/23 07:21:34;;;;;;;;;;;;;;;31.74;47.82;99381.94;4474009;32;34413;-79
2023/06/23 07:24:03;;;;;;;;;;;;;;;31.58;47.76;99382.72;4469069;32;34205;-80
2023/06/23 07:26:33;;;;;;;;;;;;;;;31.45;48.10;99385.88;4470100;32;33420;-80
2023/06/23 07:29:01;;;;;;;;;;;;;;;31.65;47.54;99381.94;4473099;32;34001;-79
2023/06/23 07:31:31;;;;;;;;;;;;;;;31.81;47.52;99378.44;4470275;32;34256;-78
2023/06/23 07:34:01;;;;;;;;;;;;;;;31.66;47.69;99380.09;4461947;32;34198;-79
2023/06/23 07:36:30;;;;;;;;;;;;;;;31.57;47.57;99381.06;4468739;32;32785;-80
2023/06/23 07:38:59;;;;;;;;;;;;;;;31.61;47.68;99385.09;4467136;32;33793;-80
2023/06/23 07:41:27;;;;;;;;;;;;;;;31.99;47.46;99382.84;4469682;32;35613;-79
2023/06/23 07:43:56;;;;;;;;;;;;;;;32.09;46.88;99388.94;4460454;32;33970;-80
2023/06/23 07:46:25;;;;;;;;;;;;;;;32.28;46.51;99383.25;4459746;32;33359;-80
2023/06/23 07:48:54;;;;;;;;;;;;;;;32.03;47.07;99384.22;4473569;32;34173;-80
2023/06/23 07:51:24;;;;;;;;;;;;;;;32.19;46.42;99381.56;4471315;32;34389;-79
2023/06/23 07:53:53;;;;;;;;;;;;;;;32.27;46.49;99386.06;4466749;32;33672;-79
2023/06/23 07:56:34;;;;;;;;;;;;;;;32.13;46.81;99384.88;4474252;32;32969;-80
2023/06/23 07:59:03;;;;;;;;;;;;;;;31.66;47.20;99378.25;4461013;32;34033;-81
2023/06/23 08:01:32;;;;;;;;;;;;;;;31.98;47.07;99382.03;4466112;32;33853;-79
2023/06/23 08:04:01;;;;;;;;;;;;;;;32.29;46.53;99382.22;4473245;32;34620;-80
2023/06/23 08:06:33;;;;;;;;;;;;;;;32.57;46.37;99381.06;4468526;32;33535;-81
2023/06/23 08:09:02;;;;;;;;;;;;;;;32.71;45.92;99385.75;4467799;32;33043;-80
2023/06/23 08:11:31;;;;;;;;;;;;;;;32.62;45.00;99376.87;4461031;32;34271;-79
2023/06/23 08:14:00;;;;;;;;;;;;;;;32.59;45.19;99379.03;4471088;32;34353;-80
2023/06/23 08:16:29;;;;;;;;;;;;;;;32.97;44.44;99366.72;4463357;32;33302;-80
2023/06/23 08:18:58;;;;;;;;;;;;;;;32.68;45.77;99375.34;4466775;32;34115;-79
2023/06/23 08:21:26;;;;;;;;;;;;;;;32.87;44.67;99383.03;4467863;32;34092;-80
2023/06/23 08:23:57;;;;;;;;;;;;;;;32.65;44.40;99384.59;4465062;32;35114;-79
2023/06/23 08:26:25;;;;;;;;;;;;;;;33.02;44.93;99374.25;4471623;32;32487;-79
2023/06/23 08:28:54;;;;;;;;;;;;;;;32.84;45.31;99363.75;4472742;32;33367;-80
2023/06/23 08:31:23;;;;;;;;;;;;;;;32.86;45.06;99364.38;4469596;32;34402;-79
2023/06/23 08:33:52;;;;;;;;;;;;;;;33.04;44.57;99378.47;4472144;32;34222;-80
2023/06/23 08:36:20;;;;;;;;;;;;;;;33.12;44.83;99372.22;4467011;32;33567;-80
2023/06/23 08:38:49;;;;;;;;;;;;;;;33.34;45.15;99373.31;4466063;32;32320;-81
2023/06/23 08:41:21;;;;;;;;;;;;;;;33.23;43.82;99377.25;4471494;32;33068;-81
2023/06/23 08:43:51;;;;;;;;;;;;;;;33.33;43.66;99383.25;4471748;32;35141;-80
2023/06/23 08:46:19;;;;;;;;;;;;;;;33.34;43.95;99376.00;4466461;32;32921;-80
2023/06/23 08:48:49;;;;;;;;;;;;;;;33.21;43.89;99375.75;4472593;32;34267;-80
2023/06/23 08:51:18;;;;;;;;;;;;;;;33.49;42.91;99379.66;4473113;32;33920;-79
2023/06/23 08:53:46;;;;;;;;;;;;;;;32.76;44.59;99369.13;4475065;32;34439;-80
2023/06/23 08:56:15;;;;;;;;;;;;;;;33.22;43.77;99369.34;4475305;32;33611;-81
2023/06/23 08:58:45;;;;;;;;;;;;;;;32.65;45.61;99370.31;4469385;32;33941;-80
2023/06/23 09:01:14;;;;;;;;;;;;;;;33.16;45.10;99376.25;4477214;32;33867;-81
2023/06/23 09:03:44;;;;;;;;;;;;;;;33.57;44.24;99376.94;4472830;32;33567;-80
2023/06/23 09:06:13;;;;;;;;;;;;;;;33.60;44.68;99377.59;4475775;32;34273;-80
2023/06/23 09:08:42;;;;;;;;;;;;;;;33.99;44.60;99385.59;4474883;32;33429;-79
2023/06/23 09:11:10;;;;;;;;;;;;;;;33.84;42.86;99384.69;4474590;32;34834;-80
2023/06/23 09:13:41;;;;;;;;;;;;;;;33.70;43.05;99386.28;4474288;32;34790;-79
2023/06/23 09:16:12;;;;;;;;;;;;;;;33.68;43.80;99378.38;4472380;32;33167;-79
2023/06/23 09:18:41;;;;;;;;;;;;;;;33.78;43.52;99375.47;4474998;32;32696;-80
2023/06/23 09:21:09;;;;;;;;;;;;;;;33.74;43.78;99390.31;4477395;32;34097;-80
2023/06/23 09:23:38;;;;;;;;;;;;;;;34.05;42.89;99392.13;4475467;32;34704;-80
2023/06/23 09:26:07;;;;;;;;;;;;;;;34.07;43.38;99390.94;4470493;32;33175;-79
2023/06/23 09:28:36;;;;;;;;;;;;;;;34.02;43.18;99385.22;4452215;32;32004;-79
2023/06/23 09:31:09;;;;;;;;;;;;;;;34.29;41.74;99381.19;4476003;32;34666;-80
2023/06/23 09:33:41;;;;;;;;;;;;;;;34.13;42.92;99384.03;4470234;32;34802;-79
2023/06/23 09:36:10;;;;;;;;;;;;;;;34.10;43.10;99384.37;4476055;32;33670;-79
2023/06/23 09:38:38;;;;;;;;;;;;;;;34.11;42.90;99381.50;4461834;32;34557;-79
2023/06/23 09:41:08;;;;;;;;;;;;;;;34.07;43.57;99390.06;4464459;32;33937;-80
2023/06/23 09:43:38;;;;;;;;;;;;;;;33.80;43.65;99386.88;4470258;32;34202;-80
2023/06/23 09:46:07;;;;;;;;;;;;;;;33.93;44.56;99394.41;4463428;32;33079;-79
2023/06/23 09:48:39;;;;;;;;;;;;;;;33.87;44.63;99393.25;4464838;32;35171;-81
2023/06/23 09:51:10;;;;;;;;;;;;;;;33.88;45.00;99386.84;4467146;32;33839;-78
2023/06/23 09:53:39;;;;;;;;;;;;;;;33.56;44.52;99404.88;4467460;32;34803;-80
2023/06/23 09:56:08;;;;;;;;;;;;;;;33.43;45.39;99409.09;4453578;32;32093;-78
2023/06/23 09:58:37;;;;;;;;;;;;;;;33.47;44.74;99416.63;4468079;32;33668;-79
2023/06/23 10:01:07;;;;;;;;;;;;;;;33.33;45.04;99411.97;4470806;32;33897;-78
2023/06/23 10:03:42;;;;;;;;;;;;;;;33.55;44.29;99413.06;4462051;32;35023;-80
2023/06/23 10:06:21;;;;;;;;;;;;;;;33.23;45.30;99416.72;4474548;32;32870;-79
2023/06/23 10:08:52;;;;;;;;;;;;;;;33.33;44.03;99406.59;4467637;32;34740;-81
2023/06/23 10:11:20;;;;;;;;;;;;;;;33.23;45.09;99404.13;4462687;32;33325;-79
2023/06/23 10:13:49;;;;;;;;;;;;;;;33.21;46.09;99406.13;4465939;32;33922;-79
2023/06/23 10:16:17;;;;;;;;;;;;;;;33.42;44.29;99415.47;4475662;32;33449;-80
2023/06/23 10:18:50;;;;;;;;;;;;;;;33.57;43.84;99411.91;4480258;32;33794;-79
2023/06/23 10:21:21;;;;;;;;;;;;;;;33.33;44.44;99410.12;4471806;32;34156;-79
2023/06/23 10:23:49;;;;;;;;;;;;;;;33.51;43.85;99399.13;4470191;32;34287;-80
2023/06/23 10:26:18;;;;;;;;;;;;;;;33.67;42.88;99406.31;4473637;32;33904;-78
2023/06/23 10:28:50;;;;;;;;;;;;;;;33.75;43.71;99400.03;4474327;32;33969;-80
2023/06/23 10:31:19;;;;;;;;;;;;;;;33.87;43.08;99406.69;4463734;32;35084;-81
2023/06/23 10:33:47;;;;;;;;;;;;;;;33.95;42.76;99398.59;4468668;32;33672;-80
2023/06/23 10:36:18;;;;;;;;;;;;;;;33.89;42.68;99403.84;4472161;32;33398;-81
2023/06/23 10:38:48;;;;;;;;;;;;;;;33.70;43.28;99397.88;4482806;32;33181;-79
2023/06/23 10:41:17;;;;;;;;;;;;;;;33.73;42.67;99400.22;4474405;32;33682;-80
2023/06/23 10:43:47;;;;;;;;;;;;;;;33.86;43.51;99406.87;4472147;32;34128;-79
2023/06/23 10:46:15;;;;;;;;;;;;;;;33.85;43.54;99392.56;4472323;32;33639;-79
2023/06/23 10:48:44;;;;;;;;;;;;;;;34.27;43.10;99385.09;4477761;32;34233;-79
2023/06/23 10:51:12;;;;;;;;;;;;;;;34.11;42.40;99373.41;4482604;32;34661;-79
2023/06/23 10:53:44;;;;;;;;;;;;;;;34.22;43.06;99380.25;4477919;32;34412;-79
2023/06/23 10:56:29;;;;;;;;;;;;;;;34.37;42.57;99374.91;4476348;32;34182;-79
2023/06/23 10:59:19;;;;;;;;;;;;;;;34.20;42.97;99376.91;4471335;32;34485;-81
2023/06/23 11:02:10;;;;;;;;;;;;;;;34.41;40.41;99368.16;4449919;32;33936;-79
2023/06/23 11:04:41;;;;;;;;;;;;;;;34.71;39.49;99379.81;4462118;32;34402;-81
2023/06/23 11:07:13;;;;;;;;;;;;;;;34.53;39.88;99371.22;4471954;32;34162;-79
2023/06/23 11:09:52;;;;;;;;;;;;;;;34.97;38.81;99367.78;4467987;32;33808;-79
2023/06/23 11:12:32;;;;;;;;;;;;;;;35.15;36.67;99368.25;4459839;32;33095;-81
2023/06/23 11:15:11;;;;;;;;;;;;;;;34.33;38.47;99366.34;4466079;32;34071;-81
2023/06/23 11:17:40;;;;;;;;;;;;;;;34.29;39.04;99362.34;4469084;32;33970;-79
2023/06/23 11:20:10;;;;;;;;;;;;;;;35.19;38.01;99372.25;4471299;32;34496;-80
2023/06/23 11:22:39;;;;;;;;;;;;;;;35.85;36.33;99368.69;4465953;31;34868;-79
2023/06/23 11:25:08;;;;;;;;;;;;;;;36.09;35.88;99362.94;4466515;32;33790;-79
2023/06/23 11:27:38;;;;;;;;;;;;;;;36.56;34.83;99367.87;4472020;32;33084;-80
2023/06/23 11:30:17;;;;;;;;;;;;;;;36.23;35.04;99360.37;4479468;32;33861;-81
2023/06/23 11:32:46;;;;;;;;;;;;;;;35.93;34.24;99365.88;4468592;32;34827;-79
2023/06/23 11:35:14;;;;;;;;;;;;;;;36.21;35.76;99360.56;4461092;32;34302;-79
2023/06/23 11:37:43;;;;;;;;;;;;;;;36.19;36.58;99359.91;4461718;32;34059;-79
2023/06/23 11:40:11;;;;;;;;;;;;;;;36.35;35.91;99357.97;4461227;32;34225;-78
2023/06/23 11:42:46;;;;;;;;;;;;;;;36.55;35.38;99353.53;4479469;32;34023;-81
2023/06/23 11:45:15;;;;;;;;;;;;;;;36.25;35.17;99348.34;4477502;32;33820;-79
2023/06/23 11:47:44;;;;;;;;;;;;;;;36.14;36.65;99343.47;4475440;31;33906;-78
2023/06/23 11:50:13;;;;;;;;;;;;;;;35.87;38.84;99351.28;4476509;32;34489;-80
2023/06/23 11:52:42;;;;;;;;;;;;;;;35.70;39.33;99344.47;4481935;32;34090;-80
2023/06/23 11:55:14;;;;;;;;;;;;;;;35.39;40.45;99347.41;4470384;32;33731;-78
2023/06/23 11:57:46;;;;;;;;;;;;;;;35.22;41.06;99339.50;4475637;32;33303;-80
2023/06/23 12:00:15;;;;;;;;;;;;;;;35.30;40.42;99337.72;4473567;32;34306;-80
2023/06/23 12:02:44;;;;;;;;;;;;;;;35.18;41.12;99335.53;4473827;32;34256;-79
2023/06/23 12:05:14;;;;;;;;;;;;;;;35.16;41.99;99337.59;4481591;32;34275;-80
2023/06/23 12:07:42;;;;;;;;;;;;;;;35.17;41.63;99335.72;4474161;32;32915;-80
2023/06/23 12:10:11;;;;;;;;;;;;;;;35.35;41.67;99338.00;4475317;32;33592;-80
2023/06/23 12:12:39;;;;;;;;;;;;;;;34.95;43.22;99327.53;4475416;32;34671;-78
2023/06/23 12:15:10;;;;;;;;;;;;;;;34.58;43.74;99321.16;4482332;32;34472;-79
2023/06/23 12:17:41;;;;;;;;;;;;;;;34.60;43.39;99312.91;4475527;32;33209;-79
2023/06/23 12:20:10;;;;;;;;;;;;;;;34.93;43.13;99317.94;4460943;32;33926;-80
2023/06/23 12:22:39;;;;;;;;;;;;;;;34.83;42.02;99302.06;4461133;32;34406;-79
2023/06/23 12:25:08;;;;;;;;;;;;;;;35.18;42.09;99307.72;4461284;32;35078;-79
2023/06/23 12:27:38;;;;;;;;;;;;;;;35.50;41.33;99306.44;4466535;32;33976;-79
2023/06/23 12:30:17;;;;;;;;;;;;;;;35.39;41.85;99302.38;4471396;32;34133;-77
2023/06/23 12:32:46;;;;;;;;;;;;;;;35.39;41.19;99298.84;4463476;32;34027;-80
2023/06/23 12:35:19;;;;;;;;;;;;;;;35.06;41.35;99307.31;4473351;32;35737;-80
2023/06/23 12:37:48;;;;;;;;;;;;;;;34.70;42.21;99304.56;4475557;32;33386;-78
2023/06/23 12:40:28;;;;;;;;;;;;;;;34.96;42.08;99302.22;4477458;32;33483;-79
2023/06/23 12:42:57;;;;;;;;;;;;;;;35.22;40.66;99299.06;4474945;32;33657;-80
2023/06/23 12:45:27;;;;;;;;;;;;;;;35.31;40.05;99294.41;4474476;32;34485;-79
2023/06/23 12:47:56;;;;;;;;;;;;;;;35.61;40.49;99299.72;4466885;32;33495;-78
2023/06/23 12:50:28;;;;;;;;;;;;;;;35.81;38.92;99284.59;4481742;32;34723;-79
2023/06/23 12:53:06;;;;;;;;;;;;;;;35.71;38.62;99286.75;4481492;32;33993;-80
2023/06/23 12:55:35;;;;;;;;;;;;;;;35.57;39.20;99274.12;4476075;32;34181;-79
2023/06/23 12:58:04;;;;;;;;;;;;;;;36.01;38.91;99281.22;4476291;32;32526;-79
2023/06/23 13:00:33;;;;;;;;;;;;;;;35.85;39.52;99287.72;4475822;32;34805;-78
2023/06/23 13:03:04;;;;;;;;;;;;;;;35.75;39.79;99292.59;4478267;32;34305;-80